createdAt,value
2018-11-20T00:02:09.699Z,97327.97
2018-11-20T00:05:06.165Z,97328.35
2018-11-20T00:08:13.558Z,97325.33
2018-11-20T00:11:05.747Z,97324.13
2018-11-20T00:14:05.894Z,97319.82
2018-11-20T00:16:45.154Z,97315.97
2018-11-20T00:19:41.457Z,97318.09
2018-11-20T00:22:26.020Z,97320.62
2018-11-20T00:25:19.833Z,97314.69
2018-11-20T00:28:18.651Z,97312.95
2018-11-20T00:31:06.753Z,97312.57
2018-11-20T04:36:59.371Z,97160.92
2018-11-20T04:39:44.221Z,97153.68
2018-11-20T04:44:48.210Z,97134.44
2018-11-20T04:47:39.003Z,97135.76
2018-11-20T04:50:24.762Z,97136.17
2018-11-20T04:53:11.626Z,97134.44
2018-11-20T04:56:01.683Z,97135.67
2018-11-20T04:58:56.966Z,97122.44
2018-11-20T05:01:32.594Z,97109.16
2018-11-20T05:04:23.862Z,97102.73
2018-11-20T05:07:11.201Z,97107.45
2018-11-20T05:10:05.344Z,97105.30
2018-11-20T05:13:15.907Z,97105.30
2018-11-20T05:18:39.822Z,97096.40
2018-11-20T05:25:33.402Z,97092.77
2018-11-20T05:28:20.217Z,97089.91
2018-11-20T05:31:01.266Z,97088.28
2018-11-20T05:34:01.090Z,97089.53
2018-11-20T05:36:58.223Z,97089.98
2018-11-20T05:39:58.846Z,97084.84
2018-11-20T05:42:49.867Z,97076.28
2018-11-20T05:45:43.155Z,97078.44
2018-11-20T05:48:30.004Z,97092.09
2018-11-20T05:51:29.972Z,97077.98
2018-11-20T05:54:42.107Z,97081.42
2018-11-20T05:57:30.271Z,97083.98
2018-11-20T06:00:39.426Z,97084.39
2018-11-20T06:03:26.353Z,97086.13
2018-11-20T06:06:17.653Z,97092.05
2018-11-20T06:09:05.805Z,97099.75
2018-11-20T06:11:53.404Z,97095.48
2018-11-20T06:14:44.275Z,97095.98
2018-11-20T06:17:35.454Z,97096.40
2018-11-20T06:20:26.925Z,97091.69
2018-11-20T06:23:13.954Z,97093.38
2018-11-20T06:26:02.868Z,97092.97
2018-11-20T06:28:47.152Z,97105.30
2018-11-20T06:31:34.205Z,97101.91
2018-11-20T06:34:34.885Z,97102.36
2018-11-20T06:37:23.466Z,97107.88
2018-11-20T06:40:21.786Z,97097.68
2018-11-20T06:43:10.107Z,97088.28
2018-11-20T06:45:56.506Z,97089.53
2018-11-20T06:48:45.336Z,97092.55
2018-11-20T06:51:36.368Z,97092.92
2018-11-20T06:54:23.797Z,97098.47
2018-11-20T06:57:27.367Z,97098.89
2018-11-20T07:00:27.320Z,97100.24
2018-11-20T07:03:14.177Z,97101.45
2018-11-20T07:06:01.177Z,97095.04
2018-11-20T07:08:55.561Z,97100.58
2018-11-20T07:11:44.198Z,97101.41
2018-11-20T07:14:34.357Z,97098.81
2018-11-20T07:17:30.069Z,97087.71
2018-11-20T07:20:26.408Z,97101.87
2018-11-20T07:23:34.111Z,97097.98
2018-11-20T07:26:13.850Z,97102.23
2018-11-20T07:29:00.678Z,97099.22
2018-11-20T07:32:07.209Z,97108.61
2018-11-20T07:35:02.333Z,97105.19
2018-11-20T07:37:49.701Z,97107.75
2018-11-20T07:40:36.439Z,97103.90
2018-11-20T07:43:23.539Z,97099.22
2018-11-20T07:46:20.980Z,97106.91
2018-11-20T07:49:09.152Z,97104.35
2018-11-20T07:51:57.562Z,97105.19
2018-11-20T07:54:51.972Z,97122.69
2018-11-20T07:57:34.211Z,97114.13
2018-11-20T08:00:16.132Z,97108.57
2018-11-20T08:02:58.496Z,97111.14
2018-11-20T08:05:54.092Z,97100.01
2018-11-20T08:08:45.434Z,97115.81
2018-11-20T08:11:32.132Z,97118.80
2018-11-20T08:14:33.271Z,97111.52
2018-11-20T08:17:15.332Z,97110.19
2018-11-20T08:20:02.364Z,97120.01
2018-11-20T08:23:05.814Z,97111.89
2018-11-20T08:25:57.170Z,97121.73
2018-11-20T08:28:44.277Z,97115.33
2018-11-20T08:31:32.606Z,97106.75
2018-11-20T08:34:35.773Z,97107.63
2018-11-20T08:37:26.977Z,97108.03
2018-11-20T08:40:26.338Z,97105.51
2018-11-20T08:43:11.295Z,97114.45
2018-11-20T08:45:58.034Z,97118.68
2018-11-20T08:48:52.135Z,97115.24
2018-11-20T08:51:46.475Z,97119.88
2018-11-20T08:54:37.215Z,97121.98
2018-11-20T08:57:25.834Z,97114.21
2018-11-20T09:00:22.822Z,97118.92
2018-11-20T09:03:09.490Z,97115.87
2018-11-20T09:06:01.296Z,97119.67
2018-11-20T09:09:04.456Z,97120.05
2018-11-20T09:11:51.715Z,97124.15
2018-11-20T09:14:38.213Z,97116.66
2018-11-20T09:17:38.436Z,97120.83
2018-11-20T09:20:39.379Z,97116.11
2018-11-20T09:23:26.243Z,97116.77
2018-11-20T09:26:13.296Z,97101.73
2018-11-20T09:29:04.636Z,97102.92
2018-11-20T09:32:05.696Z,97108.47
2018-11-20T09:34:57.081Z,97105.95
2018-11-20T09:37:44.185Z,97104.86
2018-11-20T09:40:58.655Z,97094.82
2018-11-20T09:43:56.517Z,97110.93
2018-11-20T09:46:50.553Z,97115.88
2018-11-20T09:49:50.695Z,97103.31
2018-11-20T09:52:37.435Z,97089.14
2018-11-20T09:55:26.504Z,97085.10
2018-11-20T09:58:14.736Z,97079.05
2018-11-20T10:01:04.184Z,97073.45
2018-11-20T10:03:44.863Z,97084.47
2018-11-20T10:06:39.077Z,97090.84
2018-11-20T10:09:32.278Z,97092.17
2018-11-20T10:12:38.860Z,97082.91
2018-11-20T10:15:26.566Z,97072.25
2018-11-20T10:18:27.162Z,97078.31
2018-11-20T10:21:14.205Z,97070.06
2018-11-20T10:24:04.697Z,97066.90
2018-11-20T10:26:49.197Z,97054.96
2018-11-20T10:29:46.045Z,97057.63
2018-11-20T10:32:44.118Z,97049.22
2018-11-20T10:35:35.599Z,97050.37
2018-11-20T10:38:26.590Z,97041.66
2018-11-20T10:41:05.099Z,97044.23
2018-11-20T10:43:52.397Z,97043.25
2018-11-20T10:46:40.290Z,97028.06
2018-11-20T10:49:27.998Z,97023.11
2018-11-20T10:52:09.119Z,97015.66
2018-11-20T10:54:49.819Z,97009.17
2018-11-20T10:57:56.178Z,97011.80
2018-11-20T11:00:43.064Z,97013.72
2018-11-20T11:03:29.960Z,97006.70
2018-11-20T11:06:17.045Z,97016.98
2018-11-20T11:09:05.240Z,97016.42
2018-11-20T11:11:54.412Z,97011.28
2018-11-20T11:14:41.566Z,97016.74
2018-11-20T11:17:24.700Z,97010.61
2018-11-20T11:20:11.565Z,96998.02
2018-11-20T11:23:17.985Z,96991.16
2018-11-20T11:26:04.982Z,97010.21
2018-11-20T11:28:53.271Z,96998.63
2018-11-20T11:31:41.662Z,96999.23
2018-11-20T11:34:42.222Z,97006.33
2018-11-20T11:37:30.783Z,97000.51
2018-11-20T11:40:21.770Z,97002.46
2018-11-20T11:43:13.144Z,97000.50
2018-11-20T11:46:00.063Z,97006.58
2018-11-20T11:48:48.665Z,97003.41
2018-11-20T11:51:39.991Z,96999.77
2018-11-20T11:54:19.982Z,96994.81
2018-11-20T11:57:20.303Z,96982.75
2018-11-20T12:00:06.742Z,96976.89
2018-11-20T12:05:47.423Z,96979.23
2018-11-20T12:08:28.341Z,96986.75
2018-11-20T12:11:31.658Z,96986.33
2018-11-20T12:14:18.542Z,96981.48
2018-11-20T12:17:05.762Z,96988.20
2018-11-20T12:19:59.830Z,96990.44
2018-11-20T12:22:46.752Z,96995.99
2018-11-20T12:25:29.244Z,96993.34
2018-11-20T12:28:18.898Z,97001.32
2018-11-20T12:31:15.980Z,97003.48
2018-11-20T12:34:00.442Z,96997.02
2018-11-20T12:36:44.531Z,97004.32
2018-11-20T12:39:31.341Z,96997.66
2018-11-20T12:42:15.985Z,97009.55
2018-11-20T12:45:16.573Z,97010.09
2018-11-20T12:48:03.883Z,97008.75
2018-11-20T12:50:50.394Z,97001.89
2018-11-20T12:53:40.671Z,97007.69
2018-11-20T12:56:33.979Z,96999.19
2018-11-20T12:59:39.371Z,97008.15
2018-11-20T13:02:22.784Z,97006.64
2018-11-20T13:05:04.922Z,96998.52
2018-11-20T13:07:56.211Z,97002.12
2018-11-20T13:10:56.504Z,97007.73
2018-11-20T13:13:48.007Z,97006.84
2018-11-20T13:16:39.683Z,97007.55
2018-11-20T13:19:43.140Z,97000.14
2018-11-20T13:22:33.537Z,97003.89
2018-11-20T13:25:18.044Z,97000.83
2018-11-20T13:28:21.263Z,97002.42
2018-11-20T13:31:17.902Z,96996.75
2018-11-20T13:34:09.224Z,96995.16
2018-11-20T13:36:57.792Z,96990.70
2018-11-20T13:39:52.091Z,96989.18
2018-11-20T13:42:48.069Z,96982.91
2018-11-20T13:45:34.854Z,96980.60
2018-11-20T13:48:21.653Z,96976.34
2018-11-20T13:50:59.663Z,96982.14
2018-11-20T13:53:52.143Z,96982.86
2018-11-20T13:56:50.305Z,96983.26
2018-11-20T13:59:37.274Z,96976.53
2018-11-20T14:02:25.632Z,96974.33
2018-11-20T14:05:12.194Z,96978.28
2018-11-20T14:07:59.301Z,96982.19
2018-11-20T14:11:05.865Z,96984.20
2018-11-20T14:13:59.974Z,96975.25
2018-11-20T14:16:54.385Z,96972.91
2018-11-20T14:19:48.909Z,96968.02
2018-11-20T14:22:34.286Z,96970.89
2018-11-20T14:25:32.506Z,96973.98
2018-11-20T14:28:26.703Z,96971.89
2018-11-20T14:31:18.034Z,96967.09
2018-11-20T14:34:00.989Z,96961.94
2018-11-20T14:36:48.175Z,96962.05
2018-11-20T14:39:36.430Z,96964.48
2018-11-20T14:42:24.267Z,96964.75
2018-11-20T14:45:13.916Z,96955.70
2018-11-20T14:48:03.336Z,96957.37
2018-11-20T14:50:51.707Z,96954.13
2018-11-20T14:53:49.187Z,96951.66
2018-11-20T15:01:02.708Z,96945.91
2018-11-20T15:03:50.914Z,96949.09
2018-11-20T15:06:46.499Z,96951.87
2018-11-20T15:09:36.422Z,96953.31
2018-11-20T15:12:23.499Z,96954.89
2018-11-20T15:15:10.681Z,96952.80
2018-11-20T15:17:59.248Z,96961.89
2018-11-20T15:20:49.916Z,96952.22
2018-11-20T15:23:44.269Z,96957.46
2018-11-20T15:26:23.432Z,96964.12
2018-11-20T15:29:24.259Z,96966.84
2018-11-20T15:32:21.718Z,96967.34
2018-11-20T15:35:15.629Z,96957.17
2018-11-20T15:38:03.970Z,96964.92
2018-11-20T15:40:56.830Z,96968.88
2018-11-20T15:43:51.010Z,96971.59
2018-11-20T15:47:28.936Z,96984.59
2018-11-20T15:51:27.643Z,96988.54
2018-11-20T15:58:59.591Z,96990.87
2018-11-20T16:02:11.795Z,97003.31
2018-11-20T16:05:20.316Z,97005.14
2018-11-20T16:23:06.192Z,97024.22
2018-11-20T16:29:58.882Z,97017.67
2018-11-20T16:33:08.075Z,97026.23
2018-11-20T16:36:47.173Z,97030.47
2018-11-20T16:39:46.812Z,97032.61
2018-11-20T16:42:31.912Z,97048.02
2018-11-20T16:45:29.272Z,97052.30
2018-11-20T16:48:23.223Z,97062.62
2018-11-20T16:51:10.153Z,97065.64
2018-11-20T16:54:04.754Z,97063.98
2018-11-20T16:57:01.194Z,97065.27
2018-11-20T17:00:07.860Z,97071.23
2018-11-20T17:02:54.714Z,97070.03
2018-11-20T17:05:45.952Z,97072.52
2018-11-20T17:08:49.760Z,97075.83
2018-11-20T17:11:50.256Z,97078.44
2018-11-20T17:14:42.521Z,97080.13
2018-11-20T17:17:45.857Z,97081.46
2018-11-20T17:20:36.394Z,97081.84
2018-11-20T17:23:42.335Z,97089.13
2018-11-20T17:26:30.055Z,97096.37
2018-11-20T17:29:21.295Z,97103.25
2018-11-20T17:32:07.827Z,97111.38
2018-11-20T17:35:05.428Z,97112.62
2018-11-20T17:38:03.551Z,97112.66
2018-11-20T17:40:50.596Z,97113.52
2018-11-20T17:43:37.797Z,97113.94
2018-11-20T17:46:25.256Z,97122.52
2018-11-20T17:49:20.742Z,97128.48
2018-11-20T17:52:08.042Z,97131.88
2018-11-20T17:54:56.808Z,97125.04
2018-11-20T17:57:46.597Z,97131.45
2018-11-20T18:00:41.687Z,97127.65
2018-11-20T18:03:29.103Z,97129.85
2018-11-20T18:06:21.076Z,97122.28
2018-11-20T18:09:07.037Z,97121.48
2018-11-20T18:11:58.484Z,97121.94
2018-11-20T18:14:45.580Z,97120.66
2018-11-20T18:52:42.159Z,97087.02
2018-11-20T18:55:42.537Z,97087.88
2018-11-20T18:58:37.539Z,97078.89
2018-11-20T19:01:29.238Z,97074.63
2018-11-20T19:04:35.797Z,97080.67
2018-11-20T19:07:20.697Z,97082.47
2018-11-20T19:10:07.660Z,97084.70
2018-11-20T19:13:00.471Z,97083.05
2018-11-20T19:16:03.719Z,97074.97
2018-11-20T19:18:54.938Z,97077.13
2018-11-20T19:21:46.579Z,97069.47
2018-11-20T19:24:46.223Z,97063.97
2018-11-20T19:27:53.837Z,97069.69
2018-11-20T19:30:45.140Z,97062.62
2018-11-20T19:33:43.665Z,97068.55
2018-11-20T19:36:51.279Z,97071.78
2018-11-20T19:39:59.642Z,97075.67
2018-11-20T19:42:51.564Z,97078.20
2018-11-20T19:45:48.922Z,97076.33
2018-11-20T19:48:36.398Z,97071.52
2018-11-20T19:51:25.360Z,97072.68
2018-11-20T19:54:55.621Z,97076.48
2018-11-20T19:57:43.738Z,97075.00
2018-11-20T20:07:51.385Z,97076.34
2018-11-20T20:10:41.278Z,97079.25
2018-11-20T20:13:34.060Z,97079.66
2018-11-20T20:16:28.419Z,97085.58
2018-11-20T20:19:22.538Z,97080.48
2018-11-20T20:25:25.982Z,97089.56
2018-11-20T20:28:13.386Z,97086.25
2018-11-20T20:31:00.739Z,97083.77
2018-11-20T20:33:57.380Z,97086.88
2018-11-20T20:36:42.581Z,97086.96
2018-11-20T20:39:30.711Z,97093.30
2018-11-20T20:42:12.786Z,97100.50
2018-11-20T20:44:59.680Z,97100.04
2018-11-20T20:47:51.002Z,97094.49
2018-11-20T20:50:38.199Z,97091.92
2018-11-20T20:53:36.258Z,97090.23
2018-11-20T20:56:24.239Z,97095.73
2018-11-20T20:59:12.960Z,97098.30
2018-11-20T21:02:00.245Z,97091.43
2018-11-20T21:04:51.785Z,97093.95
2018-11-20T21:07:58.399Z,97088.41
2018-11-20T21:10:43.370Z,97095.28
2018-11-20T21:13:30.239Z,97093.20
2018-11-20T21:16:18.619Z,97087.20
2018-11-20T21:19:07.158Z,97101.36
2018-11-20T21:21:48.951Z,97107.00
2018-11-20T21:24:38.679Z,97116.08
2018-11-20T21:27:35.659Z,97120.09
2018-11-20T21:30:19.406Z,97133.91
2018-11-20T21:33:16.002Z,97148.78
2018-11-20T21:36:04.304Z,97147.38
2018-11-20T21:38:52.759Z,97153.22
2018-11-20T21:41:50.122Z,97155.24
2018-11-20T21:44:37.220Z,97157.70
2018-11-20T21:47:13.949Z,97162.33
2018-11-20T21:50:05.272Z,97166.14
2018-11-20T21:52:52.269Z,97171.20
2018-11-20T21:55:31.660Z,97175.50
2018-11-20T21:58:18.920Z,97190.91
2018-11-20T22:01:24.645Z,97189.25
2018-11-20T22:04:11.979Z,97197.75
2018-11-20T22:06:58.921Z,97200.69
2018-11-20T22:10:05.522Z,97195.14
2018-11-20T22:13:05.749Z,97193.44
2018-11-20T22:15:52.529Z,97195.17
2018-11-20T22:18:39.310Z,97196.42
2018-11-20T22:21:39.601Z,97192.95
2018-11-20T22:24:33.880Z,97191.66
2018-11-20T22:27:40.260Z,97197.63
2018-11-20T22:30:21.049Z,97196.37
2018-11-20T22:33:11.602Z,97203.63
2018-11-20T22:36:03.181Z,97204.05
2018-11-20T22:38:51.381Z,97209.56
2018-11-20T22:41:45.462Z,97212.95
2018-11-20T22:44:25.641Z,97216.30
2018-11-20T22:47:22.964Z,97213.70
2018-11-20T22:50:10.023Z,97214.98
2018-11-20T22:53:16.181Z,97219.21
2018-11-20T22:56:10.433Z,97221.41
2018-11-20T22:59:01.767Z,97217.97
2018-11-20T23:01:48.428Z,97217.92
2018-11-20T23:04:36.506Z,97213.70
2018-11-20T23:07:23.567Z,97216.64
2018-11-20T23:09:52.952Z,97217.05
2018-11-20T23:12:22.366Z,97210.63
2018-11-20T23:14:51.886Z,97201.69
2018-11-20T23:17:21.654Z,97195.27
2018-11-20T23:19:51.185Z,97193.53
2018-11-20T23:22:20.755Z,97192.24
2018-11-20T23:24:50.235Z,97190.13
2018-11-20T23:27:19.728Z,97193.11
2018-11-20T23:29:51.108Z,97184.49
2018-11-20T23:32:20.940Z,97184.20
2018-11-20T23:34:50.388Z,97185.86
2018-11-20T23:37:20.267Z,97182.13
2018-11-20T23:39:49.787Z,97182.13
2018-11-20T23:42:23.861Z,97176.98
2018-11-20T23:44:48.969Z,97175.70
2018-11-20T23:47:18.558Z,97182.55
2018-11-20T23:49:48.047Z,97180.44
2018-11-20T23:52:17.580Z,97173.18
2018-11-20T23:54:47.028Z,97165.89
2018-11-20T23:57:16.576Z,97162.04
2018-11-20T23:59:45.930Z,97157.36
